Latest Weather Observations for Collie East

IDW60801

Issued at 6:03 pm WST Sunday 1 February 2015 (issued every 30 minutes, with the page automatically refreshed every 10 minutes)

About weather observations | Map of weather stations | Latest weather observations for WA | Other Formats
Station Details ID: 009994 Name: COLLIE EAST Lat: -33.36 Lon: 116.17 Height: 200.0 m
Data from the previous 72 hours. | See also: Recent months at Collie East
Date/Time
WST
Temp
°C
App
Temp
°C
Dew
Point
Rel
Hum
%
Delta-T
°C
Wind Press
QNH
hPa
Press
MSL
hPa
Rain
since 9 am
mm
Dir
 
Spd
km/h
Gust
km/h
Spd
kts
Gust
kts
01/06:00pm 29.2 25.5 9.3 29 11.2 E 19 30 10 16 - - 0.0
01/05:30pm 30.0 27.2 10.0 29 11.4 E 15 28 8 15 - - 0.0
01/05:00pm 30.2 27.3 9.7 28 11.6 ESE 15 30 8 16 - - 0.0
01/04:30pm 28.9 25.7 10.1 31 10.7 ESE 17 28 9 15 - - 0.0
01/04:00pm 28.4 25.1 11.0 34 10.0 E 19 30 10 16 - - 0.0
01/03:30pm 28.7 26.3 11.3 34 10.1 E 15 26 8 14 - - 0.0
01/03:00pm 26.8 24.6 10.9 37 9.1 E 13 24 7 13 - - 0.0
01/02:30pm 27.6 25.3 10.3 34 9.8 E 13 22 7 12 - - 0.0
01/02:00pm 27.4 26.0 11.0 36 9.4 E 9 19 5 10 - - 0.0
01/01:30pm 26.1 25.3 11.8 41 8.2 ESE 7 11 4 6 - - 0.0
01/01:00pm 24.6 23.4 11.5 44 7.5 ESE 9 17 5 9 - - 0.0
01/12:30pm 24.0 21.9 11.3 45 7.2 ESE 13 24 7 13 - - 0.0
01/12:00pm 22.6 21.1 12.0 51 6.0 ESE 11 19 6 10 - - 0.0
01/11:30am 23.6 21.8 11.0 45 7.1 E 11 24 6 13 - - 0.0
01/11:00am 23.1 20.4 10.5 45 7.0 E 15 28 8 15 - - 0.0
01/10:30am 23.1 20.1 10.5 45 7.0 ESE 17 24 9 13 - - 0.0
01/10:00am 22.8 19.9 10.9 47 6.7 ESE 17 28 9 15 - - 0.0
01/09:30am 21.3 18.6 10.5 50 5.9 E 15 22 8 12 - - 0.0
01/09:00am 21.4 18.3 10.3 49 6.1 E 17 26 9 14 - - 0.0
01/08:30am 21.4 18.5 10.9 51 5.8 ESE 17 30 9 16 - - 0.0
01/08:00am 20.1 17.0 10.2 53 5.4 E 17 28 9 15 - - 0.0
01/07:30am 19.7 17.4 10.4 55 5.1 ESE 13 26 7 14 - - 0.0
01/07:00am 18.5 16.2 10.3 59 4.4 ESE 13 30 7 16 - - 0.0
01/06:30am 17.9 15.8 11.0 64 3.8 ESE 13 22 7 12 - - 0.0
01/06:00am 17.2 15.1 11.2 68 3.3 ESE 13 24 7 13 - - 0.0
01/05:30am 16.9 15.3 11.4 70 3.0 ESE 11 17 6 9 - - 0.0
01/05:00am 17.1 14.8 11.6 70 3.0 E 15 32 8 17 - - 0.0
01/04:30am 17.0 15.4 11.7 71 2.9 E 11 24 6 13 - - 0.0
01/04:00am 17.1 15.2 11.8 71 2.9 ESE 13 30 7 16 - - 0.0
01/03:30am 17.2 15.6 11.7 70 3.0 ESE 11 20 6 11 - - 0.0
01/03:00am 17.4 16.2 11.7 69 3.1 ESE 9 22 5 12 - - 0.0
01/02:30am 17.5 15.9 11.5 68 3.3 ESE 11 20 6 11 - - 0.0
01/02:00am 17.7 15.9 11.0 65 3.7 ESE 11 20 6 11 - - 0.0
01/01:30am 17.9 16.1 11.0 64 3.8 ESE 11 19 6 10 - - 0.0
01/01:00am 18.4 16.3 11.0 62 4.0 ESE 13 20 7 11 - - 0.0
01/12:30am 18.9 16.4 11.2 61 4.2 ESE 15 26 8 14 - - 0.0
01/12:00am 19.5 17.4 11.0 58 4.7 ESE 13 22 7 12 - - 0.0
 
Date/Time
WST
Temp
°C
App
Temp
°C
Dew
Point
Rel
Hum
%
Delta-T
°C
Wind Press
QNH
hPa
Press
MSL
hPa
Rain
since 9 am
mm
Dir
 
Spd
km/h
Gust
km/h
Spd
kts
Gust
kts
31/11:30pm 20.2 17.5 10.3 53 5.4 E 15 26 8 14 - - 0.0
31/11:00pm 21.2 18.7 9.8 48 6.2 ESE 13 30 7 16 - - 0.0
31/10:30pm 22.0 19.0 9.2 44 6.9 ESE 15 24 8 13 - - 0.0
31/10:00pm 22.8 19.2 8.5 40 7.7 ESE 17 26 9 14 - - 0.0
31/09:30pm 23.4 20.4 7.9 37 8.2 ESE 13 24 7 13 - - 0.0
31/09:00pm 24.1 20.6 7.3 34 8.9 ESE 15 28 8 15 - - 0.0
31/08:30pm 24.5 21.8 7.2 33 9.1 ESE 11 17 6 9 - - 0.0
31/08:00pm 25.2 22.7 8.2 34 9.2 ESE 11 20 6 11 - - 0.0
31/07:30pm 25.9 23.1 8.4 33 9.5 ESE 13 24 7 13 - - 0.0
31/07:00pm 26.6 23.4 8.6 32 9.9 ESE 15 28 8 15 - - 0.0
31/06:30pm 27.4 23.5 8.8 31 10.3 E 19 30 10 16 - - 0.0
31/06:00pm 28.0 24.6 9.3 31 10.4 E 17 30 9 16 - - 0.0
31/05:30pm 28.5 25.0 10.2 32 10.4 E 19 33 10 18 - - 0.0
31/05:00pm 29.3 25.7 10.4 31 10.8 ESE 20 32 11 17 - - 0.0
31/04:30pm 28.7 25.4 10.8 33 10.3 E 19 32 10 17 - - 0.0
31/04:00pm 28.8 26.0 11.4 34 10.1 ESE 17 33 9 18 - - 0.0
31/03:30pm 29.0 25.9 11.6 34 10.1 E 19 39 10 21 - - 0.0
31/03:00pm 28.9 26.1 11.5 34 10.1 ESE 17 30 9 16 - - 0.0
31/02:30pm 29.1 26.0 11.6 33 10.2 ESE 19 35 10 19 - - 0.0
31/02:00pm 29.1 25.8 11.6 33 10.2 ESE 20 35 11 19 - - 0.0
31/01:30pm 29.2 26.1 12.2 35 10.0 SE 20 35 11 19 - - 0.0
31/01:00pm 28.3 26.0 11.8 36 9.6 E 15 28 8 15 - - 0.0
31/12:30pm 28.4 25.3 11.5 35 9.8 SE 19 32 10 17 - - 0.0
31/12:00pm 28.3 26.0 11.8 36 9.6 ESE 15 33 8 18 - - 0.0
31/11:30am 26.8 23.9 10.9 37 9.1 ESE 17 35 9 19 - - 0.0
31/11:00am 25.9 22.9 10.5 38 8.7 ESE 17 32 9 17 - - 0.0
31/10:30am 24.9 21.7 11.1 42 7.8 ESE 19 32 10 17 - - 0.0
31/10:00am 23.9 20.8 11.6 46 7.0 ESE 19 32 10 17 - - 0.0
31/09:30am 22.2 19.5 11.6 51 6.0 ESE 17 32 9 17 - - 0.0
31/09:00am 21.8 18.8 11.8 53 5.6 E 19 28 10 15 - - 0.0
31/08:30am 20.7 18.5 12.1 58 4.9 ESE 15 24 8 13 - - 0.0
31/08:00am 19.8 17.7 12.3 62 4.2 ESE 15 26 8 14 - - 0.0
31/07:30am 18.5 16.0 12.3 67 3.5 E 17 32 9 17 - - 0.0
31/07:00am 17.9 16.1 12.1 69 3.2 E 13 26 7 14 - - 0.0
31/06:30am 17.2 15.7 11.9 71 2.9 ESE 11 22 6 12 - - 0.0
31/06:00am 16.6 15.1 11.9 74 2.6 ESE 11 17 6 9 - - 0.0
31/05:30am 16.6 15.4 11.7 73 2.7 ESE 9 17 5 9 - - 0.0
31/05:00am 16.6 15.4 11.7 73 2.7 E 9 19 5 10 - - 0.0
31/04:30am 16.8 15.2 11.7 72 2.8 E 11 22 6 12 - - 0.0
31/04:00am 16.8 15.6 11.7 72 2.8 ESE 9 13 5 7 - - 0.0
31/03:30am 17.0 15.4 11.7 71 2.9 E 11 20 6 11 - - 0.0
31/03:00am 17.2 15.3 11.9 71 2.9 ESE 13 20 7 11 - - 0.0
31/02:30am 17.3 15.4 11.8 70 3.0 ESE 13 26 7 14 - - 0.0
31/02:00am 17.4 16.0 12.1 71 2.9 ESE 11 17 6 9 - - 0.0
31/01:30am 17.6 16.5 12.1 70 3.1 E 9 20 5 11 - - 0.0
31/01:00am 18.2 16.4 12.2 68 3.4 ESE 13 20 7 11 - - 0.0
31/12:30am 18.6 16.9 12.4 67 3.5 ESE 13 24 7 13 - - 0.0
31/12:00am 19.0 17.3 12.5 66 3.7 ESE 13 24 7 13 - - 0.0
 
Date/Time
WST
Temp
°C
App
Temp
°C
Dew
Point
Rel
Hum
%
Delta-T
°C
Wind Press
QNH
hPa
Press
MSL
hPa
Rain
since 9 am
mm
Dir
 
Spd
km/h
Gust
km/h
Spd
kts
Gust
kts
30/11:30pm 19.5 17.8 12.5 64 4.0 ESE 13 22 7 12 - - 0.0
30/11:00pm 20.3 18.6 12.5 61 4.4 ESE 13 24 7 13 - - 0.0
30/10:30pm 21.6 19.9 12.5 56 5.2 ESE 13 26 7 14 - - 0.0
30/10:00pm 22.8 21.4 12.1 51 6.1 ESE 11 20 6 11 - - 0.0
30/09:30pm 23.8 22.3 11.8 47 6.8 ESE 11 20 6 11 - - 0.0
30/09:00pm 25.1 22.7 11.3 42 7.9 SE 15 28 8 15 - - 0.0
30/08:30pm 26.5 24.0 9.8 35 9.3 ESE 13 20 7 11 - - 0.0
30/08:00pm 27.7 25.1 9.5 32 10.2 ESE 13 24 7 13 - - 0.0
30/07:30pm 28.8 26.4 10.0 31 10.7 ESE 13 22 7 12 - - 0.0
30/07:00pm 30.0 27.2 10.0 29 11.4 ESE 15 28 8 15 - - 0.0
30/06:30pm 31.7 28.3 9.3 25 12.7 ESE 17 35 9 19 - - 0.0
30/06:00pm 32.8 29.2 8.3 22 13.8 ESE 17 30 9 16 - - 0.0
30/05:30pm 33.5 29.7 7.5 20 14.5 E 17 35 9 19 - - 0.0
30/05:00pm 34.5 30.5 8.3 20 14.8 E 19 33 10 18 - - 0.0
30/04:30pm 34.9 31.4 7.1 18 15.5 ESE 15 28 8 15 - - 0.0
30/04:00pm 35.3 31.7 8.2 19 15.4 SE 17 32 9 17 - - 0.0
30/03:30pm 35.0 31.1 8.7 20 15.0 E 19 32 10 17 - - 0.0
30/03:00pm 35.0 31.3 7.9 19 15.3 E 17 32 9 17 - - 0.0
30/02:30pm 35.1 31.8 9.5 21 14.8 ESE 17 37 9 20 - - 0.0
30/02:00pm 34.6 30.8 9.1 21 14.6 ESE 19 30 10 16 - - 0.0
30/01:30pm 34.3 31.2 10.2 23 14.0 ESE 17 28 9 15 - - 0.0
30/01:00pm 33.4 30.6 11.3 26 13.1 ESE 17 28 9 15 - - 0.0
30/12:30pm 33.2 31.4 13.3 30 12.1 ESE 15 30 8 16 - - 0.0
30/12:00pm 30.9 28.5 12.8 33 10.8 SSE 17 32 9 17 - - 0.0
30/11:30am 30.3 28.7 14.0 37 9.9 ESE 15 28 8 15 - - 0.0
30/11:00am 28.3 26.5 14.5 43 8.4 ESE 17 30 9 16 - - 0.0
30/10:30am 27.2 25.6 14.9 47 7.5 SE 17 30 9 16 - - 0.0
30/10:00am 26.3 25.0 14.7 48 7.0 ESE 15 30 8 16 - - 0.0
30/09:30am 24.9 24.1 15.2 54 5.9 ESE 13 24 7 13 - - 0.0
30/09:00am 21.9 21.0 14.8 64 4.2 ESE 13 20 7 11 - - 0.2
30/08:30am 21.2 19.9 14.8 67 3.8 ESE 15 28 8 15 - - 0.2
30/08:00am 20.6 19.8 15.2 71 3.2 ESE 13 24 7 13 - - 0.2
30/07:30am 18.7 18.6 15.0 79 2.2 SE 9 19 5 10 - - 0.2
30/07:00am 18.1 18.5 15.2 83 1.7 SE 7 13 4 7 - - 0.2
30/06:30am 17.2 17.4 14.8 86 1.4 SE 7 15 4 8 - - 0.2
30/06:00am 16.9 17.1 14.7 87 1.3 SE 7 13 4 7 - - 0.2
30/05:30am 16.8 17.0 14.8 88 1.2 SE 7 15 4 8 - - 0.2
30/05:00am 16.9 17.1 14.7 87 1.3 SE 7 13 4 7 - - 0.2
30/04:30am 17.1 17.4 14.9 87 1.3 SE 7 17 4 9 - - 0.2
30/04:00am 17.3 17.5 14.8 85 1.5 SE 7 13 4 7 - - 0.2
30/03:30am 17.5 17.7 14.8 84 1.6 SE 7 13 4 7 - - 0.2
30/03:00am 17.8 18.1 14.9 83 1.7 SE 7 13 4 7 - - 0.2
30/02:30am 18.1 18.3 14.8 81 1.9 SE 7 13 4 7 - - 0.2
30/02:00am 18.5 18.4 15.0 80 2.1 SE 9 19 5 10 - - 0.2
30/01:30am 18.8 18.8 15.1 79 2.2 SE 9 20 5 11 - - 0.2
30/01:00am 19.2 19.1 14.9 76 2.5 SE 9 17 5 9 - - 0.2
30/12:30am 19.8 19.8 15.2 75 2.7 SE 9 20 5 11 - - 0.2
30/12:00am 20.3 20.5 15.7 75 2.8 SE 9 15 5 8 - - 0.2
 
Date/Time
WST
Temp
°C
App
Temp
°C
Dew
Point
Rel
Hum
%
Delta-T
°C
Wind Press
QNH
hPa
Press
MSL
hPa
Rain
since 9 am
mm
Dir
 
Spd
km/h
Gust
km/h
Spd
kts
Gust
kts
29/11:30pm 20.9 20.8 15.9 73 3.0 SE 11 19 6 10 - - 0.2
29/11:00pm 21.4 21.8 16.4 73 3.0 SE 9 17 5 9 - - 0.2
29/10:30pm 21.8 22.2 16.3 71 3.4 SE 9 17 5 9 - - 0.2
29/10:00pm 22.3 22.1 15.6 66 4.0 SE 11 20 6 11 - - 0.2
29/09:30pm 22.6 22.3 13.4 56 5.4 SSE 7 13 4 7 - - 0.2
29/09:00pm 22.8 22.6 13.0 54 5.7 SSE 6 13 3 7 - - 0.2
29/08:30pm 24.1 23.3 13.0 50 6.5 SE 9 15 5 8 - - 0.2
29/08:00pm 24.5 23.0 13.1 49 6.7 SE 13 30 7 16 - - 0.2
29/07:30pm 23.8 23.7 13.9 54 5.9 S 7 11 4 6 - - 0.2
29/07:00pm 24.5 24.2 13.4 50 6.5 S 7 13 4 7 - - 0.2
29/06:30pm 23.9 21.6 14.0 54 5.9 ESE 19 30 10 16 - - 0.2

Other Formats:

Comma delimited format used in spreadsheet applications
http://www.bom.gov.au/fwo/IDW60801/IDW60801.95621.axf

JavaScript Object Notation format (JSON) in row-major order
http://www.bom.gov.au/fwo/IDW60801/IDW60801.95621.json